Time;durP1;ratioP1;P1;durP2;ratioP2;P2;SDS_P1;SDS_P2;PMS_P1;PMS_P2;Temp;Humidity;BMP_temperature;BMP_pressure;BME280_temperature;BME280_humidity;BME280_pressure;Samples;Min_cycle;Max_cycle;Signal;HPM_P1;HPM_P2
2022/07/24 00:01:03;;;;;;;9.60;5.67;;;;;;;;;;4972687;28;20494;-68
2022/07/24 00:03:29;;;;;;;7.85;5.97;;;;;;;;;;4972856;28;20324;-68
2022/07/24 00:05:54;;;;;;;14.23;6.25;;;;;;;;;;4972223;28;20563;-68
2022/07/24 00:08:19;;;;;;;7.15;5.18;;;;;;;;;;4972662;28;20027;-68
2022/07/24 00:10:44;;;;;;;9.37;6.00;;;;;;;;;;4973805;28;20029;-68
2022/07/24 00:13:09;;;;;;;12.30;6.13;;;;;;;;;;4971968;28;20794;-68
2022/07/24 00:15:35;;;;;;;7.90;5.80;;;;;;;;;;4973198;28;20361;-68
2022/07/24 00:18:00;;;;;;;10.48;5.47;;;;;;;;;;4972702;28;20277;-68
2022/07/24 00:20:25;;;;;;;7.13;5.27;;;;;;;;;;4972519;28;20038;-68
2022/07/24 00:22:50;;;;;;;8.52;5.40;;;;;;;;;;4972384;28;20031;-68
2022/07/24 00:25:15;;;;;;;12.25;5.80;;;;;;;;;;4972426;28;20046;-68
2022/07/24 00:27:41;;;;;;;16.73;5.63;;;;;;;;;;4971287;28;20031;-68
2022/07/24 00:30:06;;;;;;;12.02;5.63;;;;;;;;;;4971906;28;20027;-68
2022/07/24 00:32:31;;;;;;;13.63;6.15;;;;;;;;;;4972569;28;20019;-68
2022/07/24 00:34:57;;;;;;;9.68;5.85;;;;;;;;;;4971412;28;20476;-68
2022/07/24 00:37:22;;;;;;;13.63;5.70;;;;;;;;;;4972141;28;20027;-68
2022/07/24 00:39:47;;;;;;;9.00;5.53;;;;;;;;;;4976714;28;20372;-68
2022/07/24 00:42:12;;;;;;;11.25;5.25;;;;;;;;;;4970927;28;20297;-67
2022/07/24 00:44:38;;;;;;;8.18;5.50;;;;;;;;;;4972981;28;20109;-67
2022/07/24 00:47:03;;;;;;;9.73;6.60;;;;;;;;;;4971465;28;20106;-67
2022/07/24 00:49:28;;;;;;;10.25;5.15;;;;;;;;;;4972711;28;20050;-67
2022/07/24 00:51:53;;;;;;;8.73;5.55;;;;;;;;;;4972931;28;20027;-68
2022/07/24 00:54:19;;;;;;;8.20;5.55;;;;;;;;;;4972952;28;20042;-67
2022/07/24 00:56:46;;;;;;;10.73;6.00;;;;;;;;;;4972212;28;20113;-67
2022/07/24 00:59:12;;;;;;;9.27;6.07;;;;;;;;;;4971725;28;20109;-67
2022/07/24 01:01:37;;;;;;;15.65;5.97;;;;;;;;;;4970952;28;20146;-67
2022/07/24 01:04:02;;;;;;;6.65;5.40;;;;;;;;;;4971797;28;20027;-68
2022/07/24 01:06:28;;;;;;;11.75;6.72;;;;;;;;;;4972640;28;20150;-66
2022/07/24 01:08:53;;;;;;;8.80;5.77;;;;;;;;;;4971697;28;20027;-67
2022/07/24 01:11:19;;;;;;;7.85;5.43;;;;;;;;;;4966257;28;20298;-68
2022/07/24 01:13:44;;;;;;;8.70;5.63;;;;;;;;;;4969553;28;20114;-68
2022/07/24 01:16:09;;;;;;;11.98;6.22;;;;;;;;;;4968746;28;20537;-68
2022/07/24 01:18:35;;;;;;;11.55;5.80;;;;;;;;;;4965192;28;20895;-68
2022/07/24 01:21:00;;;;;;;14.02;5.68;;;;;;;;;;4966076;28;20030;-68
2022/07/24 01:23:25;;;;;;;8.15;6.78;;;;;;;;;;4970195;28;20399;-68
2022/07/24 01:25:51;;;;;;;9.10;5.50;;;;;;;;;;4968971;28;20061;-68
2022/07/24 01:28:16;;;;;;;8.90;5.72;;;;;;;;;;4969396;28;20018;-68
2022/07/24 01:30:42;;;;;;;8.57;5.88;;;;;;;;;;4969455;28;20045;-68
2022/07/24 01:33:07;;;;;;;8.13;5.25;;;;;;;;;;4971054;28;20045;-68
2022/07/24 01:35:32;;;;;;;11.20;6.63;;;;;;;;;;4970629;28;20635;-68
2022/07/24 01:37:58;;;;;;;10.30;5.65;;;;;;;;;;4970015;28;20282;-68
2022/07/24 01:40:23;;;;;;;7.38;5.30;;;;;;;;;;4970518;28;20026;-68
2022/07/24 01:42:48;;;;;;;9.90;6.23;;;;;;;;;;4968031;28;20046;-68
2022/07/24 01:45:14;;;;;;;9.88;5.97;;;;;;;;;;4971641;28;20270;-68
2022/07/24 01:47:39;;;;;;;14.07;6.15;;;;;;;;;;4969392;28;20031;-68
2022/07/24 01:50:05;;;;;;;15.20;6.57;;;;;;;;;;4969994;28;20019;-68
2022/07/24 01:52:30;;;;;;;11.18;6.30;;;;;;;;;;4969525;28;20019;-68
2022/07/24 01:54:55;;;;;;;12.73;5.68;;;;;;;;;;4969869;28;20097;-66
2022/07/24 01:57:20;;;;;;;11.40;6.37;;;;;;;;;;4970717;28;20030;-68
2022/07/24 01:59:46;;;;;;;8.10;5.65;;;;;;;;;;4970631;28;20298;-67
2022/07/24 02:02:11;;;;;;;10.23;6.40;;;;;;;;;;4969254;28;20154;-67
2022/07/24 02:04:37;;;;;;;7.60;5.82;;;;;;;;;;4970787;28;20033;-67
2022/07/24 02:07:02;;;;;;;11.90;6.43;;;;;;;;;;4968180;28;20532;-68
2022/07/24 02:09:27;;;;;;;12.02;6.40;;;;;;;;;;4969097;28;20281;-67
2022/07/24 02:11:52;;;;;;;9.85;6.15;;;;;;;;;;4971518;28;20018;-67
2022/07/24 02:14:18;;;;;;;13.02;6.22;;;;;;;;;;4970116;28;20492;-67
2022/07/24 02:16:43;;;;;;;11.45;6.03;;;;;;;;;;4970527;28;20030;-67
2022/07/24 02:19:08;;;;;;;9.35;5.80;;;;;;;;;;4970554;28;20038;-67
2022/07/24 02:21:34;;;;;;;11.38;5.93;;;;;;;;;;4969652;28;20026;-67
2022/07/24 02:23:59;;;;;;;6.38;4.93;;;;;;;;;;4968072;28;20047;-67
2022/07/24 02:26:24;;;;;;;8.32;5.25;;;;;;;;;;4970081;28;20060;-67
2022/07/24 02:28:49;;;;;;;10.30;5.87;;;;;;;;;;4968779;28;20026;-67
2022/07/24 02:31:14;;;;;;;9.40;5.57;;;;;;;;;;4970167;28;20273;-67
2022/07/24 02:33:40;;;;;;;9.57;5.57;;;;;;;;;;4969744;28;20018;-67
2022/07/24 02:36:05;;;;;;;10.07;6.13;;;;;;;;;;4969143;28;20282;-67
2022/07/24 02:38:30;;;;;;;10.68;6.20;;;;;;;;;;4969065;28;20027;-68
2022/07/24 02:40:55;;;;;;;8.23;5.53;;;;;;;;;;4969147;28;20045;-68
2022/07/24 02:43:21;;;;;;;9.23;6.07;;;;;;;;;;4972893;28;20031;-68
2022/07/24 02:45:46;;;;;;;8.13;5.83;;;;;;;;;;4972697;28;20781;-68
2022/07/24 02:48:11;;;;;;;12.23;6.03;;;;;;;;;;4974320;28;20357;-68
2022/07/24 02:50:38;;;;;;;8.40;6.13;;;;;;;;;;4971490;28;20282;-68
2022/07/24 02:53:03;;;;;;;7.75;5.85;;;;;;;;;;4973478;28;20286;-68
2022/07/24 02:55:29;;;;;;;11.70;6.70;;;;;;;;;;4973198;28;20034;-68
2022/07/24 02:57:55;;;;;;;9.07;6.27;;;;;;;;;;4973041;28;20964;-68
2022/07/24 03:00:20;;;;;;;11.73;5.82;;;;;;;;;;4974514;28;20357;-68
2022/07/24 03:02:45;;;;;;;11.50;6.40;;;;;;;;;;4971121;28;20106;-68
2022/07/24 03:05:11;;;;;;;8.48;6.07;;;;;;;;;;4972996;28;20039;-68
2022/07/24 03:07:36;;;;;;;11.30;6.25;;;;;;;;;;4971295;28;20095;-68
2022/07/24 03:10:03;;;;;;;8.38;6.03;;;;;;;;;;4974029;28;20019;-68
2022/07/24 03:12:28;;;;;;;13.27;6.28;;;;;;;;;;4972819;28;20027;-67
2022/07/24 03:14:53;;;;;;;10.07;6.27;;;;;;;;;;4973655;28;20027;-67
2022/07/24 03:17:18;;;;;;;10.40;6.50;;;;;;;;;;4972686;28;20841;-67
2022/07/24 03:19:44;;;;;;;9.90;5.97;;;;;;;;;;4970380;28;20369;-67
2022/07/24 03:22:09;;;;;;;8.80;5.80;;;;;;;;;;4971661;28;20373;-67
2022/07/24 03:24:34;;;;;;;12.80;6.20;;;;;;;;;;4974336;28;20285;-67
2022/07/24 03:26:59;;;;;;;10.10;6.63;;;;;;;;;;4973013;28;20309;-67
2022/07/24 03:29:24;;;;;;;13.63;6.80;;;;;;;;;;4972240;28;20030;-67
2022/07/24 03:31:49;;;;;;;10.17;6.07;;;;;;;;;;4972684;28;20373;-67
2022/07/24 03:34:15;;;;;;;13.70;6.30;;;;;;;;;;4970739;28;20322;-67
2022/07/24 03:36:40;;;;;;;10.07;6.00;;;;;;;;;;4972551;28;20286;-67
2022/07/24 03:39:05;;;;;;;10.65;6.53;;;;;;;;;;4972029;28;20035;-67
2022/07/24 03:41:31;;;;;;;13.85;7.32;;;;;;;;;;4973153;28;20022;-67
2022/07/24 03:43:56;;;;;;;11.25;7.05;;;;;;;;;;4972300;28;20035;-67
2022/07/24 03:46:21;;;;;;;12.53;7.10;;;;;;;;;;4971592;28;20031;-67
2022/07/24 03:48:46;;;;;;;9.30;6.60;;;;;;;;;;4970009;28;20270;-67
2022/07/24 03:51:11;;;;;;;11.27;7.03;;;;;;;;;;4972730;28;20339;-67
2022/07/24 03:53:37;;;;;;;10.77;7.50;;;;;;;;;;4970299;28;20026;-67
2022/07/24 03:56:06;;;;;;;9.13;6.63;;;;;;;;;;4972397;28;20282;-66
2022/07/24 03:58:31;;;;;;;9.20;6.35;;;;;;;;;;4971964;28;20278;-67
2022/07/24 04:00:56;;;;;;;8.35;6.57;;;;;;;;;;4970367;28;20380;-67
2022/07/24 04:03:21;;;;;;;12.47;6.60;;;;;;;;;;4972053;28;20077;-67
2022/07/24 04:05:46;;;;;;;13.37;6.47;;;;;;;;;;4971689;28;20759;-67
2022/07/24 04:08:12;;;;;;;11.13;6.60;;;;;;;;;;4970625;28;20412;-67
2022/07/24 04:10:37;;;;;;;11.53;7.10;;;;;;;;;;4972604;28;20282;-67
2022/07/24 04:13:02;;;;;;;13.67;7.00;;;;;;;;;;4970565;28;20270;-67
2022/07/24 04:15:27;;;;;;;14.07;7.30;;;;;;;;;;4971653;28;20421;-67
2022/07/24 04:17:52;;;;;;;14.43;6.87;;;;;;;;;;4971438;28;20734;-67
2022/07/24 04:20:17;;;;;;;15.50;6.77;;;;;;;;;;4972337;28;20274;-67
2022/07/24 04:22:43;;;;;;;10.70;7.38;;;;;;;;;;4972252;28;20344;-67
2022/07/24 04:25:08;;;;;;;10.13;6.25;;;;;;;;;;4972486;28;20019;-67
2022/07/24 04:27:33;;;;;;;10.30;7.25;;;;;;;;;;4970852;28;20038;-67
2022/07/24 04:29:58;;;;;;;10.82;7.10;;;;;;;;;;4970775;28;20042;-67
2022/07/24 04:32:24;;;;;;;15.55;6.68;;;;;;;;;;4971557;28;20034;-67
2022/07/24 04:34:49;;;;;;;14.48;7.28;;;;;;;;;;4970035;28;20484;-67
2022/07/24 04:37:15;;;;;;;10.03;6.33;;;;;;;;;;4965741;28;20047;-67
2022/07/24 04:39:40;;;;;;;14.02;7.45;;;;;;;;;;4971667;28;20683;-67
2022/07/24 04:42:05;;;;;;;8.13;6.33;;;;;;;;;;4970502;28;20035;-67
2022/07/24 04:44:30;;;;;;;16.83;6.63;;;;;;;;;;4970983;28;20300;-67
2022/07/24 04:46:56;;;;;;;10.80;6.37;;;;;;;;;;4971276;28;20105;-67
2022/07/24 04:49:21;;;;;;;11.37;7.07;;;;;;;;;;4969308;28;20803;-67
2022/07/24 04:51:46;;;;;;;10.55;6.65;;;;;;;;;;4972871;28;20266;-67
2022/07/24 04:54:11;;;;;;;11.57;6.83;;;;;;;;;;4971050;28;20018;-67
2022/07/24 04:56:36;;;;;;;12.80;8.00;;;;;;;;;;4971526;28;20286;-67
2022/07/24 04:59:02;;;;;;;11.02;6.25;;;;;;;;;;4969600;28;20278;-67
2022/07/24 05:01:27;;;;;;;15.90;7.50;;;;;;;;;;4971927;28;20022;-67
2022/07/24 05:03:53;;;;;;;12.43;6.45;;;;;;;;;;4970818;28;20086;-67
2022/07/24 05:06:18;;;;;;;8.23;6.13;;;;;;;;;;4971015;28;20109;-67
2022/07/24 05:08:43;;;;;;;10.63;6.33;;;;;;;;;;5005920;23;20104;-71
2022/07/24 05:11:08;;;;;;;17.70;6.50;;;;;;;;;;4990059;28;20273;-71
2022/07/24 05:13:33;;;;;;;11.98;6.05;;;;;;;;;;4990913;28;20068;-68
2022/07/24 05:15:59;;;;;;;8.07;5.73;;;;;;;;;;4990551;28;20382;-68
2022/07/24 05:18:24;;;;;;;10.33;5.97;;;;;;;;;;4989936;28;20359;-68
2022/07/24 05:20:49;;;;;;;10.98;6.03;;;;;;;;;;4989096;28;20277;-68
2022/07/24 05:23:14;;;;;;;7.30;5.40;;;;;;;;;;4990163;28;20106;-68
2022/07/24 05:25:39;;;;;;;13.93;6.00;;;;;;;;;;4990698;28;20800;-68
2022/07/24 05:28:04;;;;;;;8.43;5.23;;;;;;;;;;4988806;28;20273;-68
2022/07/24 05:30:30;;;;;;;7.70;5.53;;;;;;;;;;4990910;28;20306;-68
2022/07/24 05:32:55;;;;;;;8.60;5.75;;;;;;;;;;4988007;28;20030;-68
2022/07/24 05:35:20;;;;;;;10.77;5.97;;;;;;;;;;4990026;28;20030;-68
2022/07/24 05:37:45;;;;;;;8.50;5.50;;;;;;;;;;4990880;28;20316;-68
2022/07/24 05:40:11;;;;;;;11.77;5.87;;;;;;;;;;4988473;28;20022;-68
2022/07/24 05:42:36;;;;;;;10.80;5.28;;;;;;;;;;4989467;28;20284;-68
2022/07/24 05:45:01;;;;;;;11.38;5.30;;;;;;;;;;4988447;28;20096;-68
2022/07/24 05:47:27;;;;;;;8.38;4.47;;;;;;;;;;4990373;28;20029;-68
2022/07/24 05:49:52;;;;;;;16.40;5.55;;;;;;;;;;4989320;28;20359;-70
2022/07/24 05:52:17;;;;;;;7.28;4.70;;;;;;;;;;4990715;28;20018;-70
2022/07/24 05:54:42;;;;;;;8.07;5.17;;;;;;;;;;4988671;28;20022;-71
2022/07/24 05:57:07;;;;;;;7.70;4.60;;;;;;;;;;4990097;28;20280;-70
2022/07/24 05:59:33;;;;;;;6.85;5.28;;;;;;;;;;4988918;28;20026;-70
2022/07/24 06:01:59;;;;;;;6.82;4.97;;;;;;;;;;4989282;28;20034;-68
2022/07/24 06:04:25;;;;;;;8.38;4.97;;;;;;;;;;4989602;28;20034;-69
2022/07/24 06:06:50;;;;;;;5.88;4.45;;;;;;;;;;4989414;28;20034;-68
2022/07/24 06:09:15;;;;;;;10.83;4.50;;;;;;;;;;4986779;28;20088;-68
2022/07/24 06:11:40;;;;;;;6.10;4.50;;;;;;;;;;4988658;28;20483;-68
2022/07/24 06:14:05;;;;;;;7.97;4.77;;;;;;;;;;4987014;28;20019;-68
2022/07/24 06:16:31;;;;;;;8.40;4.55;;;;;;;;;;4989429;28;20041;-68
2022/07/24 06:18:56;;;;;;;8.20;4.27;;;;;;;;;;4989586;28;20030;-68
2022/07/24 06:21:21;;;;;;;6.07;4.65;;;;;;;;;;4989662;28;20306;-68
2022/07/24 06:23:46;;;;;;;6.50;4.20;;;;;;;;;;4989331;28;20033;-68
2022/07/24 06:26:11;;;;;;;10.10;4.03;;;;;;;;;;4990085;28;20092;-68
2022/07/24 06:28:36;;;;;;;7.03;4.18;;;;;;;;;;4989184;28;20288;-68
2022/07/24 06:31:03;;;;;;;8.20;4.22;;;;;;;;;;4989343;28;20048;-68
2022/07/24 06:33:28;;;;;;;6.72;4.40;;;;;;;;;;4990477;28;20101;-68
2022/07/24 06:35:53;;;;;;;6.82;4.43;;;;;;;;;;4989998;28;20076;-68
2022/07/24 06:38:18;;;;;;;5.30;3.80;;;;;;;;;;4988224;28;20076;-71
2022/07/24 06:40:44;;;;;;;8.37;3.67;;;;;;;;;;4989028;28;20034;-71
2022/07/24 06:43:09;;;;;;;6.03;4.07;;;;;;;;;;4989827;28;20027;-70
2022/07/24 06:45:36;;;;;;;6.70;2.73;;;;;;;;;;4989843;28;20316;-70
2022/07/24 06:48:01;;;;;;;8.32;3.88;;;;;;;;;;4980329;28;20323;-70
2022/07/24 06:50:26;;;;;;;7.93;4.03;;;;;;;;;;4987591;28;20520;-70
2022/07/24 06:52:52;;;;;;;6.00;3.95;;;;;;;;;;4988670;28;20076;-70
2022/07/24 06:55:17;;;;;;;8.87;4.80;;;;;;;;;;4990140;28;20089;-70
2022/07/24 06:57:42;;;;;;;6.80;3.73;;;;;;;;;;4989913;28;20277;-68
2022/07/24 07:00:09;;;;;;;5.20;3.67;;;;;;;;;;4990306;28;20022;-68
2022/07/24 07:02:34;;;;;;;6.82;4.10;;;;;;;;;;4988960;28;20022;-68
2022/07/24 07:04:59;;;;;;;10.13;4.22;;;;;;;;;;4987845;28;20034;-68
2022/07/24 07:07:24;;;;;;;9.88;4.53;;;;;;;;;;4990284;28;20160;-68
2022/07/24 07:09:50;;;;;;;9.63;4.30;;;;;;;;;;4989604;28;20387;-68
2022/07/24 07:12:15;;;;;;;8.07;3.53;;;;;;;;;;4988532;28;20018;-68
2022/07/24 07:14:40;;;;;;;7.23;3.30;;;;;;;;;;4989481;28;20045;-68
2022/07/24 07:17:05;;;;;;;5.57;3.77;;;;;;;;;;4989504;28;20065;-68
2022/07/24 07:19:30;;;;;;;9.40;4.23;;;;;;;;;;4988787;28;20053;-68
2022/07/24 07:21:58;;;;;;;5.53;4.00;;;;;;;;;;4989042;28;20282;-68
2022/07/24 07:24:23;;;;;;;5.28;3.42;;;;;;;;;;4989447;28;20026;-68
2022/07/24 07:26:48;;;;;;;9.10;3.97;;;;;;;;;;4987419;28;20026;-68
2022/07/24 07:29:13;;;;;;;8.67;4.47;;;;;;;;;;4989452;28;20418;-68
2022/07/24 07:31:38;;;;;;;7.60;4.65;;;;;;;;;;4993497;28;20015;-68
2022/07/24 07:34:04;;;;;;;8.43;5.93;;;;;;;;;;4991232;28;20034;-68
2022/07/24 07:36:29;;;;;;;8.60;3.93;;;;;;;;;;4992875;28;20032;-68
2022/07/24 07:38:54;;;;;;;7.30;3.63;;;;;;;;;;4991329;28;20614;-68
2022/07/24 07:41:20;;;;;;;5.82;3.92;;;;;;;;;;4992675;28;20034;-69
2022/07/24 07:43:47;;;;;;;12.45;4.78;;;;;;;;;;4989582;28;20131;-69
2022/07/24 07:46:12;;;;;;;9.70;3.97;;;;;;;;;;4992714;28;20117;-69
2022/07/24 07:48:37;;;;;;;8.90;4.20;;;;;;;;;;4991155;28;20126;-69
2022/07/24 07:51:03;;;;;;;4.80;4.30;;;;;;;;;;4992822;28;20038;-69
2022/07/24 07:53:28;;;;;;;5.17;3.83;;;;;;;;;;4992588;28;20022;-69
2022/07/24 07:55:53;;;;;;;7.73;3.73;;;;;;;;;;4991680;28;20286;-69
2022/07/24 07:58:18;;;;;;;9.47;3.97;;;;;;;;;;4992397;28;20053;-69
2022/07/24 08:00:44;;;;;;;5.45;3.90;;;;;;;;;;4992509;28;20031;-69
2022/07/24 08:03:09;;;;;;;6.33;3.90;;;;;;;;;;4990310;28;20026;-69
2022/07/24 08:05:34;;;;;;;5.20;4.03;;;;;;;;;;4992863;28;20045;-68
2022/07/24 08:07:59;;;;;;;4.82;3.55;;;;;;;;;;4992095;28;20030;-68
2022/07/24 08:10:24;;;;;;;10.77;3.87;;;;;;;;;;4992138;28;20430;-68
2022/07/24 08:12:50;;;;;;;5.38;3.45;;;;;;;;;;4992012;28;20025;-67
2022/07/24 08:15:16;;;;;;;9.30;3.43;;;;;;;;;;4991336;28;20101;-67
2022/07/24 08:17:42;;;;;;;6.10;4.00;;;;;;;;;;4991982;28;20495;-67
2022/07/24 08:20:07;;;;;;;5.97;3.73;;;;;;;;;;4991065;28;20033;-67
2022/07/24 08:22:32;;;;;;;6.65;3.42;;;;;;;;;;4992261;28;20058;-67
2022/07/24 08:24:57;;;;;;;5.60;3.57;;;;;;;;;;4989866;28;20014;-67
2022/07/24 08:27:22;;;;;;;6.23;4.00;;;;;;;;;;4991206;28;20368;-67
2022/07/24 08:29:48;;;;;;;5.17;3.40;;;;;;;;;;4986969;28;20073;-67
2022/07/24 08:32:13;;;;;;;6.80;3.73;;;;;;;;;;4990611;28;20073;-67
2022/07/24 08:34:38;;;;;;;5.50;3.90;;;;;;;;;;4989171;28;20022;-67
2022/07/24 08:37:03;;;;;;;7.60;3.50;;;;;;;;;;4987155;28;20022;-67
2022/07/24 08:39:28;;;;;;;6.03;3.93;;;;;;;;;;4989404;28;20030;-67
2022/07/24 08:41:54;;;;;;;6.20;4.23;;;;;;;;;;4985083;28;20044;-68
2022/07/24 08:44:19;;;;;;;6.80;4.28;;;;;;;;;;4987972;28;20015;-68
2022/07/24 08:46:44;;;;;;;7.32;3.47;;;;;;;;;;4986896;28;20360;-68
2022/07/24 08:49:13;;;;;;;8.00;4.15;;;;;;;;;;4989540;28;20087;-68
2022/07/24 08:51:39;;;;;;;7.65;4.10;;;;;;;;;;4990172;28;20033;-68
2022/07/24 08:54:05;;;;;;;9.85;4.25;;;;;;;;;;4985754;28;20052;-68
2022/07/24 08:56:33;;;;;;;10.15;4.10;;;;;;;;;;4988748;28;20053;-68
2022/07/24 08:58:58;;;;;;;9.50;4.32;;;;;;;;;;4986538;28;20026;-68
2022/07/24 09:01:23;;;;;;;5.80;3.97;;;;;;;;;;4988709;28;20106;-68
2022/07/24 09:03:48;;;;;;;8.17;4.37;;;;;;;;;;4987218;28;20113;-68
2022/07/24 09:06:14;;;;;;;6.70;4.63;;;;;;;;;;4986908;28;20022;-68
2022/07/24 09:08:43;;;;;;;10.23;4.35;;;;;;;;;;4986534;28;20045;-68
2022/07/24 09:11:09;;;;;;;7.30;4.75;;;;;;;;;;4987833;28;20105;-68
2022/07/24 09:16:23;;;;;;;9.27;4.78;;;;;;;;;;4985911;28;20060;-68
2022/07/24 09:19:04;;;;;;;9.73;5.13;;;;;;;;;;4985309;28;20026;-68
2022/07/24 09:21:32;;;;;;;5.93;4.63;;;;;;;;;;4986900;28;20061;-68
2022/07/24 09:24:02;;;;;;;8.65;4.57;;;;;;;;;;4986766;28;20454;-68
2022/07/24 09:26:42;;;;;;;9.48;4.60;;;;;;;;;;4988098;28;20049;-68
2022/07/24 09:29:07;;;;;;;;;;;;;;;;;;4986984;28;20034;-68
2022/07/24 09:31:48;;;;;;;13.25;6.68;;;;;;;;;;4989426;28;19914;-69
2022/07/24 09:34:13;;;;;;;11.65;5.30;;;;;;;;;;4982028;28;20068;-68
2022/07/24 09:36:39;;;;;;;9.90;5.20;;;;;;;;;;4988067;28;20079;-68
2022/07/24 09:39:04;;;;;;;9.45;5.05;;;;;;;;;;4987862;28;20023;-68
2022/07/24 09:41:29;;;;;;;11.48;4.95;;;;;;;;;;4988627;28;20103;-68
2022/07/24 09:44:02;;;;;;;8.68;5.15;;;;;;;;;;4980987;28;20030;-68
2022/07/24 09:46:28;;;;;;;7.60;5.32;;;;;;;;;;4989460;28;20483;-68
2022/07/24 09:48:57;;;;;;;7.72;4.75;;;;;;;;;;4988819;28;20056;-69
2022/07/24 09:51:23;;;;;;;11.50;5.30;;;;;;;;;;4982147;28;20483;-68
2022/07/24 09:53:52;;;;;;;8.18;5.20;;;;;;;;;;4971179;28;20045;-68
2022/07/24 09:56:18;;;;;;;10.35;5.40;;;;;;;;;;4982788;28;20069;-68
2022/07/24 09:58:46;;;;;;;10.43;5.07;;;;;;;;;;4984330;28;20069;-68
2022/07/24 10:01:12;;;;;;;7.10;5.00;;;;;;;;;;4972625;28;20109;-68
2022/07/24 10:03:38;;;;;;;8.90;5.05;;;;;;;;;;4979182;28;20125;-68
2022/07/24 10:06:05;;;;;;;5.63;4.40;;;;;;;;;;4985693;28;20022;-69
2022/07/24 10:08:31;;;;;;;6.20;4.95;;;;;;;;;;4989471;28;20025;-68
2022/07/24 10:10:56;;;;;;;13.32;4.50;;;;;;;;;;4989973;28;20022;-68
2022/07/24 10:13:24;;;;;;;6.47;3.70;;;;;;;;;;4986251;28;20096;-68
2022/07/24 10:15:53;;;;;;;9.38;5.07;;;;;;;;;;4987051;28;20026;-68
2022/07/24 10:18:19;;;;;;;8.00;5.50;;;;;;;;;;4984468;28;20014;-69
2022/07/24 10:20:45;;;;;;;6.80;4.60;;;;;;;;;;4987475;28;20284;-69
2022/07/24 10:23:19;;;;;;;7.38;5.00;;;;;;;;;;4993811;28;20116;-69
2022/07/24 10:26:05;;;;;;;9.02;4.35;;;;;;;;;;4979461;28;20327;-68
2022/07/24 10:28:41;;;;;;;11.02;6.28;;;;;;;;;;4984666;28;20273;-69
2022/07/24 10:31:07;;;;;;;5.70;4.80;;;;;;;;;;4985127;28;20088;-68
2022/07/24 10:33:34;;;;;;;8.85;4.75;;;;;;;;;;4985555;28;20022;-69
2022/07/24 10:36:01;;;;;;;7.35;4.50;;;;;;;;;;4989439;28;20111;-69
2022/07/24 10:38:33;;;;;;;8.43;5.28;;;;;;;;;;4990299;28;20113;-69
2022/07/24 10:41:01;;;;;;;5.82;4.45;;;;;;;;;;4991028;28;20026;-68
2022/07/24 10:43:26;;;;;;;8.82;4.90;;;;;;;;;;4990434;28;20030;-69
2022/07/24 10:45:58;;;;;;;9.10;4.83;;;;;;;;;;4990151;28;20562;-69
2022/07/24 10:48:23;;;;;;;7.38;5.15;;;;;;;;;;4988893;28;20281;-69
2022/07/24 10:51:02;;;;;;;9.30;4.28;;;;;;;;;;4987980;28;20018;-69
2022/07/24 10:53:42;;;;;;;13.10;4.87;;;;;;;;;;4990630;28;20073;-69
2022/07/24 10:56:18;;;;;;;5.93;4.70;;;;;;;;;;4991448;28;20022;-69
2022/07/24 10:59:03;;;;;;;7.75;4.90;;;;;;;;;;4989059;28;20045;-68
2022/07/24 11:01:32;;;;;;;6.25;4.78;;;;;;;;;;4985979;28;20018;-69
2022/07/24 11:03:58;;;;;;;9.20;5.10;;;;;;;;;;4989872;28;20019;-69
2022/07/24 11:06:42;;;;;;;9.50;4.72;;;;;;;;;;4992252;28;20032;-69
2022/07/24 11:09:08;;;;;;;9.55;4.30;;;;;;;;;;4993323;28;20023;-69
2022/07/24 11:11:39;;;;;;;8.07;4.78;;;;;;;;;;4979279;28;20029;-69
2022/07/24 11:14:04;;;;;;;11.63;4.90;;;;;;;;;;4991952;28;20023;-68
2022/07/24 11:16:30;;;;;;;6.22;4.80;;;;;;;;;;4993375;28;20022;-70
2022/07/24 11:18:56;;;;;;;16.15;4.82;;;;;;;;;;4988703;28;20118;-69
2022/07/24 11:21:36;;;;;;;6.35;4.50;;;;;;;;;;4991972;28;20117;-69
2022/07/24 11:24:14;;;;;;;6.60;4.18;;;;;;;;;;4991746;28;20102;-69
2022/07/24 11:26:52;;;;;;;10.75;5.13;;;;;;;;;;4993537;28;20022;-69
2022/07/24 11:29:32;;;;;;;5.30;4.35;;;;;;;;;;4990253;23;20506;-84
2022/07/24 11:31:57;;;;;;;;;;;;;;;;;;4987933;28;20035;-86
2022/07/24 11:34:23;;;;;;;9.67;4.43;;;;;;;;;;4991373;28;20019;-86
2022/07/24 11:36:50;;;;;;;6.20;4.32;;;;;;;;;;5011579;28;20029;-86
2022/07/24 11:39:16;;;;;;;10.07;4.82;;;;;;;;;;5013414;28;20053;-86
2022/07/24 11:41:45;;;;;;;7.47;4.07;;;;;;;;;;5015442;28;20049;-86
2022/07/24 11:44:11;;;;;;;7.97;4.50;;;;;;;;;;5004562;28;20025;-86
2022/07/24 11:46:39;;;;;;;6.72;4.70;;;;;;;;;;5009300;28;20029;-85
2022/07/24 11:49:05;;;;;;;6.40;4.43;;;;;;;;;;5001912;28;20040;-85
2022/07/24 11:51:30;;;;;;;5.90;4.35;;;;;;;;;;5013354;28;20010;-86
2022/07/24 11:53:56;;;;;;;9.25;4.53;;;;;;;;;;5008384;28;20018;-86
2022/07/24 11:56:21;;;;;;;6.70;4.68;;;;;;;;;;5002231;28;20034;-86
2022/07/24 11:58:47;;;;;;;6.68;4.30;;;;;;;;;;4998891;28;20436;-86
2022/07/24 12:01:19;;;;;;;7.70;5.15;;;;;;;;;;5003799;28;20028;-86
2022/07/24 12:03:49;;;;;;;6.32;4.93;;;;;;;;;;5002885;28;20030;-87
2022/07/24 12:06:14;;;;;;;7.07;4.30;;;;;;;;;;5007383;28;20408;-86
2022/07/24 12:08:40;;;;;;;7.95;4.85;;;;;;;;;;5008941;28;20026;-87
2022/07/24 12:11:06;;;;;;;8.40;4.63;;;;;;;;;;4994713;28;20799;-87
2022/07/24 12:13:32;;;;;;;11.75;5.00;;;;;;;;;;5003014;28;20568;-86
2022/07/24 12:15:58;;;;;;;7.47;5.35;;;;;;;;;;5016384;28;20030;-88
2022/07/24 12:18:23;;;;;;;9.70;4.90;;;;;;;;;;5009589;28;20130;-86
2022/07/24 12:20:49;;;;;;;6.43;4.60;;;;;;;;;;5010209;28;20053;-87
2022/07/24 12:23:15;;;;;;;6.75;4.43;;;;;;;;;;5008262;28;20117;-86
2022/07/24 12:25:41;;;;;;;8.98;4.78;;;;;;;;;;5014069;28;20521;-87
2022/07/24 12:28:14;;;;;;;11.20;4.40;;;;;;;;;;5005726;28;20084;-87
2022/07/24 12:30:40;;;;;;;7.28;4.47;;;;;;;;;;5011548;28;20556;-86
2022/07/24 12:33:18;;;;;;;8.02;4.10;;;;;;;;;;5007628;28;20022;-86
2022/07/24 12:36:08;;;;;;;9.35;3.95;;;;;;;;;;5007393;28;20029;-87
2022/07/24 12:38:33;;;;;;;;;;;;;;;;;;5008119;28;20025;-86
2022/07/24 12:41:04;;;;;;;5.70;4.20;;;;;;;;;;5005948;28;19914;-87
2022/07/24 12:43:29;;;;;;;8.35;4.25;;;;;;;;;;5001005;28;20022;-87
2022/07/24 12:46:05;;;;;;;9.50;4.90;;;;;;;;;;5011489;28;20394;-87
2022/07/24 12:48:30;;;;;;;6.82;5.00;;;;;;;;;;4998885;28;20042;-86
2022/07/24 12:50:59;;;;;;;7.57;4.60;;;;;;;;;;5000808;28;20098;-87
2022/07/24 12:53:26;;;;;;;7.78;4.40;;;;;;;;;;4999400;28;20695;-86
2022/07/24 12:56:05;;;;;;;6.72;4.18;;;;;;;;;;5006404;28;20041;-86
2022/07/24 12:58:47;;;;;;;8.97;4.20;;;;;;;;;;5016397;28;20022;-85
2022/07/24 13:01:12;;;;;;;7.60;4.47;;;;;;;;;;5011091;28;20018;-86
2022/07/24 13:03:37;;;;;;;6.13;4.60;;;;;;;;;;5011948;28;20021;-87
2022/07/24 13:06:02;;;;;;;8.10;5.80;;;;;;;;;;5002898;28;20293;-85
2022/07/24 13:08:28;;;;;;;8.00;4.38;;;;;;;;;;5007596;28;20281;-86
2022/07/24 13:10:53;;;;;;;10.77;4.95;;;;;;;;;;5007567;28;20038;-86
2022/07/24 13:13:18;;;;;;;7.97;4.68;;;;;;;;;;5012472;28;20032;-85
2022/07/24 13:15:44;;;;;;;7.10;4.53;;;;;;;;;;5009183;28;20105;-87
2022/07/24 13:18:09;;;;;;;6.55;4.65;;;;;;;;;;5009680;28;20253;-86
2022/07/24 13:20:34;;;;;;;5.30;4.47;;;;;;;;;;4987474;28;20038;-86
2022/07/24 13:22:59;;;;;;;10.55;5.35;;;;;;;;;;5001646;28;20268;-85
2022/07/24 13:25:24;;;;;;;6.30;4.50;;;;;;;;;;4998870;28;20023;-86
2022/07/24 13:27:50;;;;;;;7.70;4.53;;;;;;;;;;5002856;28;20025;-85
2022/07/24 13:30:18;;;;;;;7.63;4.03;;;;;;;;;;5007533;28;20331;-85
2022/07/24 13:32:44;;;;;;;8.55;4.80;;;;;;;;;;5007747;28;20560;-86
2022/07/24 13:35:09;;;;;;;8.47;3.77;;;;;;;;;;4994704;28;20034;-85
2022/07/24 13:37:35;;;;;;;7.30;4.40;;;;;;;;;;5009166;28;20025;-86
2022/07/24 13:40:00;;;;;;;7.70;3.88;;;;;;;;;;5005677;28;20025;-85
2022/07/24 13:42:26;;;;;;;9.27;4.80;;;;;;;;;;5009095;28;20030;-86
2022/07/24 13:44:51;;;;;;;6.57;4.53;;;;;;;;;;5016899;28;20041;-85
2022/07/24 13:47:17;;;;;;;7.30;3.42;;;;;;;;;;5027993;28;20038;-85
2022/07/24 13:49:42;;;;;;;8.60;4.38;;;;;;;;;;5020320;28;20014;-86
2022/07/24 13:52:07;;;;;;;9.60;4.20;;;;;;;;;;5003600;28;20114;-88
2022/07/24 13:54:33;;;;;;;6.55;4.93;;;;;;;;;;5004888;28;20293;-86
2022/07/24 13:56:58;;;;;;;6.10;4.22;;;;;;;;;;4994071;28;20030;-88
2022/07/24 13:59:32;;;;;;;5.60;4.47;;;;;;;;;;5004818;28;20029;-88
2022/07/24 14:01:57;;;;;;;5.35;4.35;;;;;;;;;;4995739;28;20041;-88
2022/07/24 14:04:29;;;;;;;6.88;4.43;;;;;;;;;;5001367;28;20410;-89
2022/07/24 14:06:55;;;;;;;7.40;3.95;;;;;;;;;;4998252;28;20088;-88
2022/07/24 14:09:21;;;;;;;8.25;4.72;;;;;;;;;;4997459;28;20727;-87
2022/07/24 14:11:46;;;;;;;6.63;3.67;;;;;;;;;;5003660;28;20049;-88
2022/07/24 14:14:11;;;;;;;9.13;4.17;;;;;;;;;;5004172;28;20045;-88
2022/07/24 14:16:39;;;;;;;4.87;3.93;;;;;;;;;;4997882;28;20312;-85
2022/07/24 14:19:04;;;;;;;7.45;4.22;;;;;;;;;;4989914;28;20314;-85
2022/07/24 14:21:30;;;;;;;7.50;4.43;;;;;;;;;;4998364;28;20034;-87
2022/07/24 14:23:55;;;;;;;8.95;4.35;;;;;;;;;;4998338;28;20022;-87
2022/07/24 14:26:20;;;;;;;7.50;3.88;;;;;;;;;;4997589;28;20026;-87
2022/07/24 14:28:45;;;;;;;4.00;3.13;;;;;;;;;;5004713;28;20088;-87
2022/07/24 14:31:13;;;;;;;7.80;4.27;;;;;;;;;;4997642;28;20281;-87
2022/07/24 14:33:38;;;;;;;7.75;4.65;;;;;;;;;;4994198;28;20272;-86
2022/07/24 14:36:03;;;;;;;7.85;4.25;;;;;;;;;;4998479;28;20022;-88
2022/07/24 14:38:28;;;;;;;6.20;3.92;;;;;;;;;;4994318;28;20112;-87